Grifon — 5IM926 — position and weather

sailwx.info

Track history (hours):
 
Tides and Currents Weather Stations Pressure Air Temp Water Temp Dewpoint Dewpoint Depression Visibility Wind Speed Wind Dir Waves Ship Positions

Grifon

Last reported at 2017-Dec-02 04:30 UTC. Time now 2017-Dec-16 15:11 UTC.
Position N 43°50' E 022°55'.
Warning: this ship's position is 14 days out of date.

Length 85 m.

Type: Ship. MMSI: 677082600.

Date/timePositionNaut miles runAvg speedWind from/ knotsBaromVisibWave heightAir tempDewpointWater temp
2017-Dec-02 04:30N 43°50' E 022°55'3 5.8
2017-Dec-02 03:56N 43°51' E 022°51'2 5.5
2017-Dec-02 03:30N 43°53' E 022°51'3 5.6
2017-Dec-02 03:00N 43°56' E 022°52'3 5.5
2017-Dec-02 02:27N 43°59' E 022°53'3 5.4
2017-Dec-02 01:59N 44°00' E 022°56'3 5.6
2017-Dec-02 01:25N 44°01' E 023°00'2 5.7
2017-Dec-02 01:00N 44°02' E 023°02'3 5.2
2017-Dec-02 00:30N 44°05' E 023°02'3 5.7
2017-Dec-02 00:00N 44°06' E 022°58'2 3.4
2017-Dec-01 23:29N 44°06' E 022°56'3 5.8
2017-Dec-01 23:00N 44°08' E 022°53'3 5.7
2017-Dec-01 22:30N 44°09' E 022°49'3 5.5
2017-Dec-01 22:00N 44°11' E 022°46'3 6.0
2017-Dec-01 21:30N 44°12' E 022°42'3 5.4
2017-Dec-01 21:00N 44°15' E 022°41'3 5.7
2017-Dec-01 20:30N 44°17' E 022°40'3 6.5
2017-Dec-01 20:00N 44°18' E 022°35'1 1.5
2017-Dec-01 19:25N 44°18' E 022°34'0 0.7
2017-Dec-01 18:58N 44°18' E 022°34'2 4.9
2017-Dec-01 18:30N 44°20' E 022°32'3 5.4
2017-Dec-01 18:00N 44°23' E 022°30'3 5.3
2017-Dec-01 17:30N 44°25' E 022°30'3 5.0
2017-Dec-01 17:00N 44°27' E 022°28'2 3.7
2017-Dec-01 16:30N 44°29' E 022°29'2 4.9
2017-Dec-01 16:01N 44°29' E 022°33'2 4.8
2017-Dec-01 15:31N 44°31' E 022°34'3 4.9
2017-Dec-01 15:00N 44°33' E 022°36'2 5.1
2017-Dec-01 14:30N 44°32' E 022°39'3 5.4
2017-Dec-01 14:00N 44°31' E 022°43'3 5.6
2017-Dec-01 13:30N 44°33' E 022°46'3 5.6
2017-Dec-01 13:00N 44°35' E 022°44'3 5.4
2017-Dec-01 12:30N 44°37' E 022°41'3 5.6
2017-Dec-01 12:00N 44°37' E 022°37'3 6.2
2017-Dec-01 11:30N 44°39' E 022°33'2 3.2
2017-Dec-01 10:59N 44°40' E 022°32'0 0.2
2017-Dec-01 10:29N 44°40' E 022°31'0 0.2
2017-Dec-01 09:56N 44°40' E 022°31'0 0.1
2017-Dec-01 09:23N 44°40' E 022°31'1 3.0
2017-Dec-01 09:00N 44°41' E 022°30'2 4.3
2017-Dec-01 08:30N 44°43' E 022°28'2 4.2
2017-Dec-01 07:57N 44°42' E 022°25'2 4.4
2017-Dec-01 07:30N 44°41' E 022°23'3 4.4
2017-Dec-01 06:55N 44°40' E 022°20'13 1.2
2017-Nov-30 19:50N 44°29' E 022°11'2 4.4
2017-Nov-30 19:23N 44°28' E 022°08'2 4.5
2017-Nov-30 19:00N 44°29' E 022°06'2 4.5
2017-Nov-30 18:30N 44°31' E 022°04'2 4.6
2017-Nov-30 18:00N 44°33' E 022°02'3 4.7
2017-Nov-30 17:28N 44°35' E 022°02'17 4.7
2017-Nov-30 13:55N 44°41' E 021°40'2 5.5
2017-Nov-30 13:30N 44°43' E 021°37'3 4.5
2017-Nov-30 12:54N 44°45' E 021°35'  
Track history (hours):
 
Tides and Currents Weather Stations Pressure Air Temp Water Temp Dewpoint Dewpoint Depression Visibility Wind Speed Wind Dir Waves Ship Positions

Grifon

Last reported at 2017-Dec-02 04:30 UTC. Time now 2017-Dec-16 15:11 UTC.
Position N 43°50' E 022°55'.
Warning: this ship's position is 14 days out of date.

Length 85 m.

Type: Ship. MMSI: 677082600.

Date/timePositionNaut miles runAvg speedWind from/ knotsBaromVisibWave heightAir tempDewpointWater temp
2017-Dec-02 04:30N 43°50' E 022°55'3 5.8
2017-Dec-02 03:56N 43°51' E 022°51'2 5.5
2017-Dec-02 03:30N 43°53' E 022°51'3 5.6
2017-Dec-02 03:00N 43°56' E 022°52'3 5.5
2017-Dec-02 02:27N 43°59' E 022°53'3 5.4
2017-Dec-02 01:59N 44°00' E 022°56'3 5.6
2017-Dec-02 01:25N 44°01' E 023°00'2 5.7
2017-Dec-02 01:00N 44°02' E 023°02'3 5.2
2017-Dec-02 00:30N 44°05' E 023°02'3 5.7
2017-Dec-02 00:00N 44°06' E 022°58'2 3.4
2017-Dec-01 23:29N 44°06' E 022°56'3 5.8
2017-Dec-01 23:00N 44°08' E 022°53'3 5.7
2017-Dec-01 22:30N 44°09' E 022°49'3 5.5
2017-Dec-01 22:00N 44°11' E 022°46'3 6.0
2017-Dec-01 21:30N 44°12' E 022°42'3 5.4
2017-Dec-01 21:00N 44°15' E 022°41'3 5.7
2017-Dec-01 20:30N 44°17' E 022°40'3 6.5
2017-Dec-01 20:00N 44°18' E 022°35'1 1.5
2017-Dec-01 19:25N 44°18' E 022°34'0 0.7
2017-Dec-01 18:58N 44°18' E 022°34'2 4.9
2017-Dec-01 18:30N 44°20' E 022°32'3 5.4
2017-Dec-01 18:00N 44°23' E 022°30'3 5.3
2017-Dec-01 17:30N 44°25' E 022°30'3 5.0
2017-Dec-01 17:00N 44°27' E 022°28'2 3.7
2017-Dec-01 16:30N 44°29' E 022°29'2 4.9
2017-Dec-01 16:01N 44°29' E 022°33'2 4.8
2017-Dec-01 15:31N 44°31' E 022°34'3 4.9
2017-Dec-01 15:00N 44°33' E 022°36'2 5.1
2017-Dec-01 14:30N 44°32' E 022°39'3 5.4
2017-Dec-01 14:00N 44°31' E 022°43'3 5.6
2017-Dec-01 13:30N 44°33' E 022°46'3 5.6
2017-Dec-01 13:00N 44°35' E 022°44'3 5.4
2017-Dec-01 12:30N 44°37' E 022°41'3 5.6
2017-Dec-01 12:00N 44°37' E 022°37'3 6.2
2017-Dec-01 11:30N 44°39' E 022°33'2 3.2
2017-Dec-01 10:59N 44°40' E 022°32'0 0.2
2017-Dec-01 10:29N 44°40' E 022°31'0 0.2
2017-Dec-01 09:56N 44°40' E 022°31'0 0.1
2017-Dec-01 09:23N 44°40' E 022°31'1 3.0
2017-Dec-01 09:00N 44°41' E 022°30'2 4.3
2017-Dec-01 08:30N 44°43' E 022°28'2 4.2
2017-Dec-01 07:57N 44°42' E 022°25'2 4.4
2017-Dec-01 07:30N 44°41' E 022°23'3 4.4
2017-Dec-01 06:55N 44°40' E 022°20'13 1.2
2017-Nov-30 19:50N 44°29' E 022°11'2 4.4
2017-Nov-30 19:23N 44°28' E 022°08'2 4.5
2017-Nov-30 19:00N 44°29' E 022°06'2 4.5
2017-Nov-30 18:30N 44°31' E 022°04'2 4.6
2017-Nov-30 18:00N 44°33' E 022°02'3 4.7
2017-Nov-30 17:28N 44°35' E 022°02'17 4.7
2017-Nov-30 13:55N 44°41' E 021°40'2 5.5
2017-Nov-30 13:30N 44°43' E 021°37'3 4.5
2017-Nov-30 12:54N 44°45' E 021°35'  

Dump ship's entire track history